M/V Martha T — WDD5337 — position and weather

sailwx.info

Track history (hours):
 
Tides and Currents Weather Stations Pressure Air Temp Water Temp Dewpoint Dewpoint Depression Visibility Wind Speed Wind Dir Waves Ship Positions

M/V Martha T

Owner: The Tug Martha T, L.L.C., Sugarland, TX. More information available from US FCC via Universal Licensing System and Coast Guard Vessel Documentation Center.

Last reported at 2018-Jun-21 12:00 UTC. Time now 2018-Jun-21 12:19 UTC.
Position N 29°47' W 092°08'.

Length 30 m.

Type: Towing. MMSI: 367156850.

Date/timePositionNaut miles runAvg speedWind from/ knotsBaromVisibWave heightAir tempDewpointWater temp
2018-Jun-21 12:00N 29°47' W 092°08'1 1.4
2018-Jun-21 11:30N 29°48' W 092°07'0 0.6
2018-Jun-21 11:00N 29°48' W 092°07'0 0.0
2018-Jun-21 10:30N 29°48' W 092°07'0 0.0
2018-Jun-21 10:00N 29°48' W 092°07'0 0.0
2018-Jun-21 09:30N 29°48' W 092°07'0 0.0
2018-Jun-21 09:00N 29°48' W 092°07'0 0.0
2018-Jun-21 08:30N 29°48' W 092°07'0 0.0
2018-Jun-21 08:00N 29°48' W 092°07'0 0.0
2018-Jun-21 07:30N 29°48' W 092°07'0 0.0
2018-Jun-21 07:00N 29°48' W 092°07'0 0.0
2018-Jun-21 06:30N 29°48' W 092°07'0 0.1
2018-Jun-21 06:00N 29°48' W 092°06'0 0.1
2018-Jun-21 05:30N 29°48' W 092°07'0 0.4
2018-Jun-21 05:00N 29°48' W 092°06'0 1.0
2018-Jun-21 04:30N 29°48' W 092°06'2 4.9
2018-Jun-21 04:00N 29°49' W 092°03'1 2.9
2018-Jun-21 03:30N 29°49' W 092°02'0 0.2
2018-Jun-21 03:00N 29°49' W 092°02'0 0.2
2018-Jun-21 02:30N 29°49' W 092°02'2 3.1
2018-Jun-21 02:00N 29°49' W 092°03'2 4.4
2018-Jun-21 01:29N 29°48' W 092°06'2 4.1
2018-Jun-21 01:00N 29°47' W 092°08'2 4.5
2018-Jun-21 00:30N 29°47' W 092°11'2 3.4
2018-Jun-21 00:00N 29°47' W 092°12'0 0.8
2018-Jun-20 23:30N 29°47' W 092°13'1 1.6
2018-Jun-20 23:00N 29°48' W 092°14'0 0.0
2018-Jun-20 22:30N 29°48' W 092°14'0 0.0
2018-Jun-20 22:00N 29°48' W 092°14'0 0.1
2018-Jun-20 21:30N 29°48' W 092°14'0 0.5
2018-Jun-20 21:00N 29°48' W 092°14'0 0.6
2018-Jun-20 20:30N 29°48' W 092°14'0 0.5
2018-Jun-20 20:00N 29°48' W 092°14'0 0.7
2018-Jun-20 19:30N 29°48' W 092°15'0 0.5
2018-Jun-20 19:00N 29°48' W 092°15'0 0.4
2018-Jun-20 18:30N 29°48' W 092°15'0 0.3
2018-Jun-20 17:59N 29°48' W 092°16'0 0.0
2018-Jun-20 17:30N 29°48' W 092°16'0 0.0
2018-Jun-20 17:00N 29°48' W 092°16'0 0.2
2018-Jun-20 16:30N 29°48' W 092°16'2 3.3
2018-Jun-20 15:59N 29°49' W 092°17'2 3.6
2018-Jun-20 15:30N 29°50' W 092°19'2 3.8
2018-Jun-20 14:54N 29°51' W 092°21'2 3.3
2018-Jun-20 14:24N 29°52' W 092°23'33 3.3
2018-Jun-20 04:31N 29°56' W 093°00'1 3.7
2018-Jun-20 04:13N 29°56' W 093°01'1 3.5
2018-Jun-20 03:59N 29°56' W 093°02'2 3.8
2018-Jun-20 03:30N 29°56' W 093°04'2 3.7
2018-Jun-20 03:00N 29°56' W 093°06'2 4.0
2018-Jun-20 02:30N 29°56' W 093°09'2 4.0
2018-Jun-20 02:00N 29°57' W 093°11'2 4.3
2018-Jun-20 01:30N 29°59' W 093°12'2 4.0
2018-Jun-20 01:00N 30°00' W 093°14'2 3.4
2018-Jun-20 00:30N 30°02' W 093°15'2 3.2
2018-Jun-20 00:00N 30°03' W 093°16'2 3.3
2018-Jun-19 23:30N 30°05' W 093°17'1 2.2
2018-Jun-19 23:00N 30°05' W 093°18'1 1.4
2018-Jun-19 22:30N 30°06' W 093°18'1 1.1
2018-Jun-19 22:00N 30°06' W 093°19'0 0.4
2018-Jun-19 21:30N 30°06' W 093°19'0 0.0
2018-Jun-19 21:00N 30°06' W 093°19'0 0.0
2018-Jun-19 20:30N 30°06' W 093°19'0 0.0
2018-Jun-19 20:00N 30°06' W 093°19'0 0.0
2018-Jun-19 19:30N 30°06' W 093°19'0 0.0
2018-Jun-19 19:00N 30°06' W 093°19'0 0.0
2018-Jun-19 18:30N 30°06' W 093°19'0 0.0
2018-Jun-19 18:00N 30°06' W 093°19'0 0.0
2018-Jun-19 17:30N 30°06' W 093°19'0 0.0
2018-Jun-19 17:00N 30°06' W 093°19'0 0.0
2018-Jun-19 16:30N 30°06' W 093°19'0 0.0
2018-Jun-19 16:00N 30°06' W 093°19'0 0.0
2018-Jun-19 15:30N 30°06' W 093°19'0 0.2
2018-Jun-19 15:00N 30°06' W 093°19'0 0.2
2018-Jun-19 14:30N 30°06' W 093°19'0 0.2
2018-Jun-19 14:00N 30°06' W 093°19'0 0.2
2018-Jun-19 13:30N 30°06' W 093°19'0 0.4
2018-Jun-19 13:00N 30°06' W 093°19'0 0.0
2018-Jun-19 12:30N 30°06' W 093°19'0 0.2
2018-Jun-19 12:00N 30°06' W 093°19'0 0.2
2018-Jun-19 11:30N 30°06' W 093°19'0 0.0
2018-Jun-19 11:00N 30°06' W 093°19'0 0.0
2018-Jun-19 10:30N 30°06' W 093°19'0 0.0
2018-Jun-19 10:00N 30°06' W 093°19'0 0.0
2018-Jun-19 09:30N 30°06' W 093°19'0 0.0
2018-Jun-19 09:00N 30°06' W 093°19'0 0.0
2018-Jun-19 08:30N 30°06' W 093°19'0 0.0
2018-Jun-19 08:00N 30°06' W 093°19'0 0.0
2018-Jun-19 07:30N 30°06' W 093°19'0 0.0
2018-Jun-19 07:00N 30°06' W 093°19'0 0.0
2018-Jun-19 06:30N 30°06' W 093°19'0 0.0
2018-Jun-19 06:00N 30°06' W 093°19'0 0.0
2018-Jun-19 05:30N 30°06' W 093°19'0 0.0
2018-Jun-19 05:00N 30°06' W 093°19'0 0.0
2018-Jun-19 04:30N 30°06' W 093°19'0 0.6
2018-Jun-19 03:59N 30°06' W 093°19'2 4.0
2018-Jun-19 03:30N 30°04' W 093°21'2 3.6
2018-Jun-19 03:00N 30°04' W 093°23'0 0.6
2018-Jun-19 02:30N 30°04' W 093°23'0 0.0
2018-Jun-19 01:59N 30°04' W 093°23'0 0.0
2018-Jun-19 01:29N 30°04' W 093°23'0 0.0
2018-Jun-19 00:59N 30°04' W 093°23'0 0.0
2018-Jun-19 00:30N 30°04' W 093°23'0 0.3
2018-Jun-19 00:00N 30°04' W 093°23'2 3.7
2018-Jun-18 23:30N 30°04' W 093°25'1 1.9
2018-Jun-18 23:00N 30°04' W 093°27'0 0.0
2018-Jun-18 22:30N 30°04' W 093°27'0 0.0
2018-Jun-18 22:00N 30°04' W 093°27'0 0.0
2018-Jun-18 21:30N 30°04' W 093°27'0 0.0
2018-Jun-18 20:58N 30°04' W 093°26'0 0.1
2018-Jun-18 20:29N 30°04' W 093°27'0 0.3
2018-Jun-18 20:00N 30°04' W 093°27'2 3.6
2018-Jun-18 19:30N 30°04' W 093°29'2 4.3
2018-Jun-18 19:00N 30°04' W 093°31'2 4.5
2018-Jun-18 18:28N 30°04' W 093°34'2 4.7
2018-Jun-18 18:00N 30°04' W 093°37'3 5.3
2018-Jun-18 17:30N 30°04' W 093°40'2 4.5
2018-Jun-18 17:00N 30°03' W 093°42'3 5.0
2018-Jun-18 16:30N 30°02' W 093°44'3 5.6
2018-Jun-18 16:00N 29°60' W 093°47'3 5.6
2018-Jun-18 15:30N 29°59' W 093°50'1 2.6
2018-Jun-18 15:00N 29°58' W 093°51'0 0.3
2018-Jun-18 14:30N 29°58' W 093°51'0 0.1
2018-Jun-18 14:00N 29°58' W 093°51'0 0.1
2018-Jun-18 13:30N 29°58' W 093°51'3 6.4
2018-Jun-18 13:00N 29°60' W 093°55'1 2.2
2018-Jun-18 12:30N 29°59' W 093°53'2 4.3
2018-Jun-18 12:00N 29°58' W 093°51'2 4.7
2018-Jun-18 11:30N 29°56' W 093°52'3 6.3
2018-Jun-18 11:00N 29°54' W 093°54'3 6.0
2018-Jun-18 10:30N 29°51' W 093°57'3 5.2
2018-Jun-18 10:01N 29°49' W 093°58'2 4.6
2018-Jun-18 09:30N 29°48' W 094°00'3 5.0
2018-Jun-18 08:59N 29°46' W 094°03'2 4.7
2018-Jun-18 08:30N 29°45' W 094°05'2 4.7
2018-Jun-18 08:00N 29°43' W 094°07'2 4.7
2018-Jun-18 07:29N 29°42' W 094°09'2 4.0
2018-Jun-18 07:00N 29°41' W 094°11'2 3.6
2018-Jun-18 06:30N 29°40' W 094°13'33 4.7
2018-Jun-17 23:29N 29°24' W 094°46'3 5.5
2018-Jun-17 23:00N 29°22' W 094°48'12 7.0
2018-Jun-17 21:15N 29°33' W 094°55'3 6.8
2018-Jun-17 20:52N 29°35' W 094°56'3 7.1
2018-Jun-17 20:30N 29°38' W 094°58'4 7.1
2018-Jun-17 19:57N 29°41' W 094°59'1 0.1
2018-Jun-17 11:06N 29°42' W 094°60'1 6.7
2018-Jun-17 11:00N 29°41' W 094°59'3 6.6
2018-Jun-17 10:30N 29°38' W 094°58'4 6.9
2018-Jun-17 09:58N 29°35' W 094°56'24 4.2
2018-Jun-17 04:21N 29°32' W 094°29'2 5.9
2018-Jun-17 03:56N 29°34' W 094°27'2 4.9
2018-Jun-17 03:27N 29°35' W 094°25'2 4.2
2018-Jun-17 03:00N 29°36' W 094°23'1 2.0
2018-Jun-17 02:30N 29°36' W 094°22'2 3.1
2018-Jun-17 02:00N 29°37' W 094°21'3 6.4
2018-Jun-17 01:29N 29°39' W 094°17'3 6.4
2018-Jun-17 01:00N 29°40' W 094°14'3 6.5
2018-Jun-17 00:30N 29°41' W 094°11'3 5.6
2018-Jun-17 00:00N 29°43' W 094°08'3 6.2
2018-Jun-16 23:30N 29°45' W 094°05'3 6.2
2018-Jun-16 23:00N 29°47' W 094°02'3 6.0
2018-Jun-16 22:30N 29°49' W 093°60'2 5.0
2018-Jun-16 22:00N 29°50' W 093°57'2 4.2
2018-Jun-16 21:30N 29°52' W 093°56'3 5.5
2018-Jun-16 21:00N 29°54' W 093°54'3 6.2
2018-Jun-16 20:30N 29°56' W 093°52'2 4.3
2018-Jun-16 20:00N 29°58' W 093°51'0 0.3
2018-Jun-16 19:30N 29°58' W 093°51'0 0.3
2018-Jun-16 19:00N 29°58' W 093°51'0 0.0
2018-Jun-16 18:31N 29°58' W 093°51'2 4.1
2018-Jun-16 18:00N 29°59' W 093°49'3 5.1
2018-Jun-16 17:30N 30°00' W 093°46'0 0.4
2018-Jun-16 17:00N 30°00' W 093°46'0 0.0
2018-Jun-16 16:30N 30°00' W 093°46'0 0.0
2018-Jun-16 16:00N 30°00' W 093°46'0 0.0
2018-Jun-16 15:30N 30°00' W 093°46'0 0.0
2018-Jun-16 15:00N 30°00' W 093°46'0 0.0
2018-Jun-16 14:30N 30°00' W 093°46'0 0.0
2018-Jun-16 14:00N 30°00' W 093°46'0 0.0
2018-Jun-16 13:30N 30°00' W 093°46'0 0.0
2018-Jun-16 13:00N 30°00' W 093°46'0 0.0
2018-Jun-16 12:30N 30°00' W 093°46'0 0.0
2018-Jun-16 12:00N 30°00' W 093°46'1 1.7
2018-Jun-16 11:30N 30°01' W 093°46'3 5.7
2018-Jun-16 11:00N 30°03' W 093°44'3 5.6
2018-Jun-16 10:30N 30°04' W 093°40'3 5.9
2018-Jun-16 10:00N 30°04' W 093°37'3 5.2
2018-Jun-16 09:30N 30°04' W 093°34'2 4.9
2018-Jun-16 09:00N 30°04' W 093°31'3 4.9
2018-Jun-16 08:29N 30°04' W 093°28'2 4.7
2018-Jun-16 08:00N 30°04' W 093°26'2 3.4
2018-Jun-16 07:30N 30°04' W 093°24'0 0.1
2018-Jun-16 07:01N 30°04' W 093°24'0 0.0
2018-Jun-16 06:30N 30°04' W 093°24'0 0.0
2018-Jun-16 06:01N 30°04' W 093°24'0 0.0
2018-Jun-16 05:30N 30°04' W 093°24'0 0.0
2018-Jun-16 05:01N 30°04' W 093°24'0 0.2
2018-Jun-16 04:31N 30°04' W 093°24'0 0.1
2018-Jun-16 04:01N 30°04' W 093°24'0 0.0
2018-Jun-16 03:30N 30°04' W 093°24'0 0.3
2018-Jun-16 03:01N 30°04' W 093°24'2 3.7
2018-Jun-16 02:30N 30°04' W 093°26'2 4.8
2018-Jun-16 02:01N 30°04' W 093°29'2 4.1
2018-Jun-16 01:31N 30°04' W 093°31'2 4.6
2018-Jun-16 00:59N 30°04' W 093°34'2 5.1
2018-Jun-16 00:30N 30°04' W 093°37'3 5.6
2018-Jun-16 00:01N 30°04' W 093°40'3 5.4
2018-Jun-15 23:30N 30°03' W 093°43'2 4.6
2018-Jun-15 23:01N 30°01' W 093°45'3 5.8
2018-Jun-15 22:30N 29°60' W 093°47'3 6.3
2018-Jun-15 22:00N 29°58' W 093°51'0 0.7
2018-Jun-15 21:30N 29°58' W 093°51'0 0.2
2018-Jun-15 21:00N 29°58' W 093°51'0 0.0
2018-Jun-15 20:30N 29°58' W 093°51'0 0.1
2018-Jun-15 20:00N 29°58' W 093°51'0 0.5
2018-Jun-15 19:30N 29°58' W 093°51'0 0.5
2018-Jun-15 19:01N 29°58' W 093°51'0 0.0
2018-Jun-15 18:30N 29°58' W 093°51'1 1.9
2018-Jun-15 18:00N 29°57' W 093°51'3 6.3
2018-Jun-15 17:31N 29°55' W 093°53'1 2.5
2018-Jun-15 17:01N 29°54' W 093°54'3 5.9
2018-Jun-15 16:31N 29°51' W 093°56'3 5.8
2018-Jun-15 16:00N 29°49' W 093°58'2 4.9
2018-Jun-15 15:31N 29°48' W 094°01'3 5.6
2018-Jun-15 15:00N 29°46' W 094°03'3 5.4
2018-Jun-15 14:30N 29°44' W 094°06'3 5.3
2018-Jun-15 14:01N 29°42' W 094°08'3 5.0
2018-Jun-15 13:30N 29°41' W 094°10'3 5.1
2018-Jun-15 13:00N 29°40' W 094°13'3 5.2
2018-Jun-15 12:31N 29°39' W 094°16'3 5.1
2018-Jun-15 12:00N 29°38' W 094°18'3 5.2
2018-Jun-15 11:28N 29°37' W 094°21'2 4.8
2018-Jun-15 10:57N 29°36' W 094°24'3 4.3
2018-Jun-15 10:14N 29°34' W 094°27'19 4.9
2018-Jun-15 06:21N 29°24' W 094°45'1 4.0
2018-Jun-15 06:00N 29°23' W 094°47'2 3.7
2018-Jun-15 05:30N 29°23' W 094°49'11 8.1
2018-Jun-15 04:07N 29°33' W 094°55'1 7.5
2018-Jun-15 03:59N 29°34' W 094°55'3 6.9
2018-Jun-15 03:29N 29°37' W 094°57'3 6.2
2018-Jun-15 03:00N 29°40' W 094°58'3 6.4
2018-Jun-15 02:29N 29°42' W 095°01'  
Track history (hours):
 
Tides and Currents Weather Stations Pressure Air Temp Water Temp Dewpoint Dewpoint Depression Visibility Wind Speed Wind Dir Waves Ship Positions

M/V Martha T

Owner: The Tug Martha T, L.L.C., Sugarland, TX. More information available from US FCC via Universal Licensing System and Coast Guard Vessel Documentation Center.

Last reported at 2018-Jun-21 12:00 UTC. Time now 2018-Jun-21 12:19 UTC.
Position N 29°47' W 092°08'.

Length 30 m.

Type: Towing. MMSI: 367156850.

Date/timePositionNaut miles runAvg speedWind from/ knotsBaromVisibWave heightAir tempDewpointWater temp
2018-Jun-21 12:00N 29°47' W 092°08'1 1.4
2018-Jun-21 11:30N 29°48' W 092°07'0 0.6
2018-Jun-21 11:00N 29°48' W 092°07'0 0.0
2018-Jun-21 10:30N 29°48' W 092°07'0 0.0
2018-Jun-21 10:00N 29°48' W 092°07'0 0.0
2018-Jun-21 09:30N 29°48' W 092°07'0 0.0
2018-Jun-21 09:00N 29°48' W 092°07'0 0.0
2018-Jun-21 08:30N 29°48' W 092°07'0 0.0
2018-Jun-21 08:00N 29°48' W 092°07'0 0.0
2018-Jun-21 07:30N 29°48' W 092°07'0 0.0
2018-Jun-21 07:00N 29°48' W 092°07'0 0.0
2018-Jun-21 06:30N 29°48' W 092°07'0 0.1
2018-Jun-21 06:00N 29°48' W 092°06'0 0.1
2018-Jun-21 05:30N 29°48' W 092°07'0 0.4
2018-Jun-21 05:00N 29°48' W 092°06'0 1.0
2018-Jun-21 04:30N 29°48' W 092°06'2 4.9
2018-Jun-21 04:00N 29°49' W 092°03'1 2.9
2018-Jun-21 03:30N 29°49' W 092°02'0 0.2
2018-Jun-21 03:00N 29°49' W 092°02'0 0.2
2018-Jun-21 02:30N 29°49' W 092°02'2 3.1
2018-Jun-21 02:00N 29°49' W 092°03'2 4.4
2018-Jun-21 01:29N 29°48' W 092°06'2 4.1
2018-Jun-21 01:00N 29°47' W 092°08'2 4.5
2018-Jun-21 00:30N 29°47' W 092°11'2 3.4
2018-Jun-21 00:00N 29°47' W 092°12'0 0.8
2018-Jun-20 23:30N 29°47' W 092°13'1 1.6
2018-Jun-20 23:00N 29°48' W 092°14'0 0.0
2018-Jun-20 22:30N 29°48' W 092°14'0 0.0
2018-Jun-20 22:00N 29°48' W 092°14'0 0.1
2018-Jun-20 21:30N 29°48' W 092°14'0 0.5
2018-Jun-20 21:00N 29°48' W 092°14'0 0.6
2018-Jun-20 20:30N 29°48' W 092°14'0 0.5
2018-Jun-20 20:00N 29°48' W 092°14'0 0.7
2018-Jun-20 19:30N 29°48' W 092°15'0 0.5
2018-Jun-20 19:00N 29°48' W 092°15'0 0.4
2018-Jun-20 18:30N 29°48' W 092°15'0 0.3
2018-Jun-20 17:59N 29°48' W 092°16'0 0.0
2018-Jun-20 17:30N 29°48' W 092°16'0 0.0
2018-Jun-20 17:00N 29°48' W 092°16'0 0.2
2018-Jun-20 16:30N 29°48' W 092°16'2 3.3
2018-Jun-20 15:59N 29°49' W 092°17'2 3.6
2018-Jun-20 15:30N 29°50' W 092°19'2 3.8
2018-Jun-20 14:54N 29°51' W 092°21'2 3.3
2018-Jun-20 14:24N 29°52' W 092°23'33 3.3
2018-Jun-20 04:31N 29°56' W 093°00'1 3.7
2018-Jun-20 04:13N 29°56' W 093°01'1 3.5
2018-Jun-20 03:59N 29°56' W 093°02'2 3.8
2018-Jun-20 03:30N 29°56' W 093°04'2 3.7
2018-Jun-20 03:00N 29°56' W 093°06'2 4.0
2018-Jun-20 02:30N 29°56' W 093°09'2 4.0
2018-Jun-20 02:00N 29°57' W 093°11'2 4.3
2018-Jun-20 01:30N 29°59' W 093°12'2 4.0
2018-Jun-20 01:00N 30°00' W 093°14'2 3.4
2018-Jun-20 00:30N 30°02' W 093°15'2 3.2
2018-Jun-20 00:00N 30°03' W 093°16'2 3.3
2018-Jun-19 23:30N 30°05' W 093°17'1 2.2
2018-Jun-19 23:00N 30°05' W 093°18'1 1.4
2018-Jun-19 22:30N 30°06' W 093°18'1 1.1
2018-Jun-19 22:00N 30°06' W 093°19'0 0.4
2018-Jun-19 21:30N 30°06' W 093°19'0 0.0
2018-Jun-19 21:00N 30°06' W 093°19'0 0.0
2018-Jun-19 20:30N 30°06' W 093°19'0 0.0
2018-Jun-19 20:00N 30°06' W 093°19'0 0.0
2018-Jun-19 19:30N 30°06' W 093°19'0 0.0
2018-Jun-19 19:00N 30°06' W 093°19'0 0.0
2018-Jun-19 18:30N 30°06' W 093°19'0 0.0
2018-Jun-19 18:00N 30°06' W 093°19'0 0.0
2018-Jun-19 17:30N 30°06' W 093°19'0 0.0
2018-Jun-19 17:00N 30°06' W 093°19'0 0.0
2018-Jun-19 16:30N 30°06' W 093°19'0 0.0
2018-Jun-19 16:00N 30°06' W 093°19'0 0.0
2018-Jun-19 15:30N 30°06' W 093°19'0 0.2
2018-Jun-19 15:00N 30°06' W 093°19'0 0.2
2018-Jun-19 14:30N 30°06' W 093°19'0 0.2
2018-Jun-19 14:00N 30°06' W 093°19'0 0.2
2018-Jun-19 13:30N 30°06' W 093°19'0 0.4
2018-Jun-19 13:00N 30°06' W 093°19'0 0.0
2018-Jun-19 12:30N 30°06' W 093°19'0 0.2
2018-Jun-19 12:00N 30°06' W 093°19'0 0.2
2018-Jun-19 11:30N 30°06' W 093°19'0 0.0
2018-Jun-19 11:00N 30°06' W 093°19'0 0.0
2018-Jun-19 10:30N 30°06' W 093°19'0 0.0
2018-Jun-19 10:00N 30°06' W 093°19'0 0.0
2018-Jun-19 09:30N 30°06' W 093°19'0 0.0
2018-Jun-19 09:00N 30°06' W 093°19'0 0.0
2018-Jun-19 08:30N 30°06' W 093°19'0 0.0
2018-Jun-19 08:00N 30°06' W 093°19'0 0.0
2018-Jun-19 07:30N 30°06' W 093°19'0 0.0
2018-Jun-19 07:00N 30°06' W 093°19'0 0.0
2018-Jun-19 06:30N 30°06' W 093°19'0 0.0
2018-Jun-19 06:00N 30°06' W 093°19'0 0.0
2018-Jun-19 05:30N 30°06' W 093°19'0 0.0
2018-Jun-19 05:00N 30°06' W 093°19'0 0.0
2018-Jun-19 04:30N 30°06' W 093°19'0 0.6
2018-Jun-19 03:59N 30°06' W 093°19'2 4.0
2018-Jun-19 03:30N 30°04' W 093°21'2 3.6
2018-Jun-19 03:00N 30°04' W 093°23'0 0.6
2018-Jun-19 02:30N 30°04' W 093°23'0 0.0
2018-Jun-19 01:59N 30°04' W 093°23'0 0.0
2018-Jun-19 01:29N 30°04' W 093°23'0 0.0
2018-Jun-19 00:59N 30°04' W 093°23'0 0.0
2018-Jun-19 00:30N 30°04' W 093°23'0 0.3
2018-Jun-19 00:00N 30°04' W 093°23'2 3.7
2018-Jun-18 23:30N 30°04' W 093°25'1 1.9
2018-Jun-18 23:00N 30°04' W 093°27'0 0.0
2018-Jun-18 22:30N 30°04' W 093°27'0 0.0
2018-Jun-18 22:00N 30°04' W 093°27'0 0.0
2018-Jun-18 21:30N 30°04' W 093°27'0 0.0
2018-Jun-18 20:58N 30°04' W 093°26'0 0.1
2018-Jun-18 20:29N 30°04' W 093°27'0 0.3
2018-Jun-18 20:00N 30°04' W 093°27'2 3.6
2018-Jun-18 19:30N 30°04' W 093°29'2 4.3
2018-Jun-18 19:00N 30°04' W 093°31'2 4.5
2018-Jun-18 18:28N 30°04' W 093°34'2 4.7
2018-Jun-18 18:00N 30°04' W 093°37'3 5.3
2018-Jun-18 17:30N 30°04' W 093°40'2 4.5
2018-Jun-18 17:00N 30°03' W 093°42'3 5.0
2018-Jun-18 16:30N 30°02' W 093°44'3 5.6
2018-Jun-18 16:00N 29°60' W 093°47'3 5.6
2018-Jun-18 15:30N 29°59' W 093°50'1 2.6
2018-Jun-18 15:00N 29°58' W 093°51'0 0.3
2018-Jun-18 14:30N 29°58' W 093°51'0 0.1
2018-Jun-18 14:00N 29°58' W 093°51'0 0.1
2018-Jun-18 13:30N 29°58' W 093°51'3 6.4
2018-Jun-18 13:00N 29°60' W 093°55'1 2.2
2018-Jun-18 12:30N 29°59' W 093°53'2 4.3
2018-Jun-18 12:00N 29°58' W 093°51'2 4.7
2018-Jun-18 11:30N 29°56' W 093°52'3 6.3
2018-Jun-18 11:00N 29°54' W 093°54'3 6.0
2018-Jun-18 10:30N 29°51' W 093°57'3 5.2
2018-Jun-18 10:01N 29°49' W 093°58'2 4.6
2018-Jun-18 09:30N 29°48' W 094°00'3 5.0
2018-Jun-18 08:59N 29°46' W 094°03'2 4.7
2018-Jun-18 08:30N 29°45' W 094°05'2 4.7
2018-Jun-18 08:00N 29°43' W 094°07'2 4.7
2018-Jun-18 07:29N 29°42' W 094°09'2 4.0
2018-Jun-18 07:00N 29°41' W 094°11'2 3.6
2018-Jun-18 06:30N 29°40' W 094°13'33 4.7
2018-Jun-17 23:29N 29°24' W 094°46'3 5.5
2018-Jun-17 23:00N 29°22' W 094°48'12 7.0
2018-Jun-17 21:15N 29°33' W 094°55'3 6.8
2018-Jun-17 20:52N 29°35' W 094°56'3 7.1
2018-Jun-17 20:30N 29°38' W 094°58'4 7.1
2018-Jun-17 19:57N 29°41' W 094°59'1 0.1
2018-Jun-17 11:06N 29°42' W 094°60'1 6.7
2018-Jun-17 11:00N 29°41' W 094°59'3 6.6
2018-Jun-17 10:30N 29°38' W 094°58'4 6.9
2018-Jun-17 09:58N 29°35' W 094°56'24 4.2
2018-Jun-17 04:21N 29°32' W 094°29'2 5.9
2018-Jun-17 03:56N 29°34' W 094°27'2 4.9
2018-Jun-17 03:27N 29°35' W 094°25'2 4.2
2018-Jun-17 03:00N 29°36' W 094°23'1 2.0
2018-Jun-17 02:30N 29°36' W 094°22'2 3.1
2018-Jun-17 02:00N 29°37' W 094°21'3 6.4
2018-Jun-17 01:29N 29°39' W 094°17'3 6.4
2018-Jun-17 01:00N 29°40' W 094°14'3 6.5
2018-Jun-17 00:30N 29°41' W 094°11'3 5.6
2018-Jun-17 00:00N 29°43' W 094°08'3 6.2
2018-Jun-16 23:30N 29°45' W 094°05'3 6.2
2018-Jun-16 23:00N 29°47' W 094°02'3 6.0
2018-Jun-16 22:30N 29°49' W 093°60'2 5.0
2018-Jun-16 22:00N 29°50' W 093°57'2 4.2
2018-Jun-16 21:30N 29°52' W 093°56'3 5.5
2018-Jun-16 21:00N 29°54' W 093°54'3 6.2
2018-Jun-16 20:30N 29°56' W 093°52'2 4.3
2018-Jun-16 20:00N 29°58' W 093°51'0 0.3
2018-Jun-16 19:30N 29°58' W 093°51'0 0.3
2018-Jun-16 19:00N 29°58' W 093°51'0 0.0
2018-Jun-16 18:31N 29°58' W 093°51'2 4.1
2018-Jun-16 18:00N 29°59' W 093°49'3 5.1
2018-Jun-16 17:30N 30°00' W 093°46'0 0.4
2018-Jun-16 17:00N 30°00' W 093°46'0 0.0
2018-Jun-16 16:30N 30°00' W 093°46'0 0.0
2018-Jun-16 16:00N 30°00' W 093°46'0 0.0
2018-Jun-16 15:30N 30°00' W 093°46'0 0.0
2018-Jun-16 15:00N 30°00' W 093°46'0 0.0
2018-Jun-16 14:30N 30°00' W 093°46'0 0.0
2018-Jun-16 14:00N 30°00' W 093°46'0 0.0
2018-Jun-16 13:30N 30°00' W 093°46'0 0.0
2018-Jun-16 13:00N 30°00' W 093°46'0 0.0
2018-Jun-16 12:30N 30°00' W 093°46'0 0.0
2018-Jun-16 12:00N 30°00' W 093°46'1 1.7
2018-Jun-16 11:30N 30°01' W 093°46'3 5.7
2018-Jun-16 11:00N 30°03' W 093°44'3 5.6
2018-Jun-16 10:30N 30°04' W 093°40'3 5.9
2018-Jun-16 10:00N 30°04' W 093°37'3 5.2
2018-Jun-16 09:30N 30°04' W 093°34'2 4.9
2018-Jun-16 09:00N 30°04' W 093°31'3 4.9
2018-Jun-16 08:29N 30°04' W 093°28'2 4.7
2018-Jun-16 08:00N 30°04' W 093°26'2 3.4
2018-Jun-16 07:30N 30°04' W 093°24'0 0.1
2018-Jun-16 07:01N 30°04' W 093°24'0 0.0
2018-Jun-16 06:30N 30°04' W 093°24'0 0.0
2018-Jun-16 06:01N 30°04' W 093°24'0 0.0
2018-Jun-16 05:30N 30°04' W 093°24'0 0.0
2018-Jun-16 05:01N 30°04' W 093°24'0 0.2
2018-Jun-16 04:31N 30°04' W 093°24'0 0.1
2018-Jun-16 04:01N 30°04' W 093°24'0 0.0
2018-Jun-16 03:30N 30°04' W 093°24'0 0.3
2018-Jun-16 03:01N 30°04' W 093°24'2 3.7
2018-Jun-16 02:30N 30°04' W 093°26'2 4.8
2018-Jun-16 02:01N 30°04' W 093°29'2 4.1
2018-Jun-16 01:31N 30°04' W 093°31'2 4.6
2018-Jun-16 00:59N 30°04' W 093°34'2 5.1
2018-Jun-16 00:30N 30°04' W 093°37'3 5.6
2018-Jun-16 00:01N 30°04' W 093°40'3 5.4
2018-Jun-15 23:30N 30°03' W 093°43'2 4.6
2018-Jun-15 23:01N 30°01' W 093°45'3 5.8
2018-Jun-15 22:30N 29°60' W 093°47'3 6.3
2018-Jun-15 22:00N 29°58' W 093°51'0 0.7
2018-Jun-15 21:30N 29°58' W 093°51'0 0.2
2018-Jun-15 21:00N 29°58' W 093°51'0 0.0
2018-Jun-15 20:30N 29°58' W 093°51'0 0.1
2018-Jun-15 20:00N 29°58' W 093°51'0 0.5
2018-Jun-15 19:30N 29°58' W 093°51'0 0.5
2018-Jun-15 19:01N 29°58' W 093°51'0 0.0
2018-Jun-15 18:30N 29°58' W 093°51'1 1.9
2018-Jun-15 18:00N 29°57' W 093°51'3 6.3
2018-Jun-15 17:31N 29°55' W 093°53'1 2.5
2018-Jun-15 17:01N 29°54' W 093°54'3 5.9
2018-Jun-15 16:31N 29°51' W 093°56'3 5.8
2018-Jun-15 16:00N 29°49' W 093°58'2 4.9
2018-Jun-15 15:31N 29°48' W 094°01'3 5.6
2018-Jun-15 15:00N 29°46' W 094°03'3 5.4
2018-Jun-15 14:30N 29°44' W 094°06'3 5.3
2018-Jun-15 14:01N 29°42' W 094°08'3 5.0
2018-Jun-15 13:30N 29°41' W 094°10'3 5.1
2018-Jun-15 13:00N 29°40' W 094°13'3 5.2
2018-Jun-15 12:31N 29°39' W 094°16'3 5.1
2018-Jun-15 12:00N 29°38' W 094°18'3 5.2
2018-Jun-15 11:28N 29°37' W 094°21'2 4.8
2018-Jun-15 10:57N 29°36' W 094°24'3 4.3
2018-Jun-15 10:14N 29°34' W 094°27'19 4.9
2018-Jun-15 06:21N 29°24' W 094°45'1 4.0
2018-Jun-15 06:00N 29°23' W 094°47'2 3.7
2018-Jun-15 05:30N 29°23' W 094°49'11 8.1
2018-Jun-15 04:07N 29°33' W 094°55'1 7.5
2018-Jun-15 03:59N 29°34' W 094°55'3 6.9
2018-Jun-15 03:29N 29°37' W 094°57'3 6.2
2018-Jun-15 03:00N 29°40' W 094°58'3 6.4
2018-Jun-15 02:29N 29°42' W 095°01'  

Dump ship's entire track history